Dourados, Brazil
Current Conditions -  °F | °C
As of 8:00 AM on Sunday 23 Nov 2014 (Local Time) from SBCG Reporting Station
Scattered Clouds Scattered Clouds  
Wind Chill: 73°   Ceiling: Unl
Heat Index: 73°   Visibility: 6mi
Dew Point: 66°   Wind: 13mph
Humidity: 78%   Direction: 80°E
Pressure: 29.94"   Gusts: NA
Location:  22.23°S, 54.81°W
Report Text: SBCG 231100Z 08011KT 9999 FEW010 SCT070 23/19 Q1014
Loading
Personal Weather Stations






























Interactive Weather Map New forecast layout! Learn more

10-Day Weather Forecast

Advertisements
Track Severe Weather on mobile